Time;durP1;ratioP1;P1;durP2;ratioP2;P2;SDS_P1;SDS_P2;PMS_P1;PMS_P2;Temp;Humidity;BMP_temperature;BMP_pressure;BME280_temperature;BME280_humidity;BME280_pressure;Samples;Min_cycle;Max_cycle;Signal;HPM_P1;HPM_P2
2021/09/06 00:10:55;;;;;;;5.40;3.30;;;;;;;10.60;51.33;101251.23;111500;1220;636728;-75
2021/09/06 00:15:06;;;;;;;5.80;3.20;;;;;;;10.55;51.58;101252.19;112303;1208;136812;-74
2021/09/06 00:19:15;;;;;;;5.70;3.60;;;;;;;10.49;51.87;101253.50;112196;1213;93914;-76
2021/09/06 00:23:24;;;;;;;7.00;3.70;;;;;;;10.44;52.10;101255.34;112035;1210;136193;-74
2021/09/06 00:27:25;;;;;;;6.80;3.90;;;;;;;10.39;52.40;101257.83;111604;1216;136981;-75
2021/09/06 00:31:15;;;;;;;;;;;;;;;10.35;52.54;101261.20;111617;1214;107469;-74
2021/09/06 00:35:24;;;;;;;8.70;4.20;;;;;;;10.33;52.74;101258.11;111683;1216;123635;-75
2021/09/06 00:39:56;;;;;;;6.60;4.30;;;;;;;10.36;52.84;101258.74;111394;1214;136956;-75
2021/09/06 00:44:18;;;;;;;8.70;4.60;;;;;;;10.39;52.97;101259.92;111171;1219;109454;-75
2021/09/06 01:04:22;;;;;;;9.30;5.00;;;;;;;10.07;54.25;101265.05;109976;1234;136983;-74
2021/09/06 01:08:28;;;;;;;;;;;;;;;;;;;;;
2021/09/06 01:20:24;;;;;;;8.20;4.80;;;;;;;9.96;55.21;101264.69;111502;1213;635620;-75
2021/09/06 01:28:41;;;;;;;11.20;5.50;;;;;;;9.92;55.66;101266.13;111890;1210;136527;-74
2021/09/06 01:32:50;;;;;;;7.30;4.50;;;;;;;9.89;55.80;101262.70;111635;1214;108238;-74
2021/09/06 01:40:56;;;;;;;;;;;;;;;;;;;;;
2021/09/06 01:45:27;;;;;;;9.10;5.80;;;;;;;9.80;56.31;101259.16;110287;1231;93953;-75
2021/09/06 01:49:27;;;;;;;8.30;5.10;;;;;;;9.86;56.57;101259.77;109925;1234;136423;-75
2021/09/06 01:56:59;;;;;;;9.70;6.10;;;;;;;9.87;57.23;101260.45;111493;1220;636423;-76
2021/09/06 02:01:18;;;;;;;;;;;;;;;;;;;;;
2021/09/06 02:05:07;;;;;;;;;;;;;;;;;;;;;
2021/09/06 02:09:22;;;;;;;;;;;;;;;;;;;;;
2021/09/06 02:14:11;;;;;;;11.30;7.20;;;;;;;9.88;58.60;101269.48;111184;1224;108085;-75
2021/09/06 02:18:16;;;;;;;10.90;6.80;;;;;;;9.82;58.81;101271.29;110522;1227;137017;-75
2021/09/06 02:26:28;;;;;;;14.60;8.10;;;;;;;9.65;59.65;101264.36;111444;1220;636956;-74
2021/09/06 02:30:36;;;;;;;14.00;8.10;;;;;;;9.59;59.83;101258.73;112494;1199;136994;-75
2021/09/06 02:34:45;;;;;;;11.60;7.60;;;;;;;9.54;59.88;101260.36;112179;1206;94040;-75
2021/09/06 02:59:39;;;;;;;;;;;;;;;;;;;;;
2021/09/06 03:03:31;;;;;;;;;;;;;;;;;;;;;
2021/09/06 03:07:41;;;;;;;9.10;6.40;;;;;;;9.40;60.19;101256.00;112246;1203;136313;-74
2021/09/06 03:16:24;;;;;;;10.90;5.70;;;;;;;9.33;60.15;101253.46;111917;1218;107335;-75
2021/09/06 03:20:44;;;;;;;9.40;6.30;;;;;;;9.33;60.33;101246.85;111507;1212;136845;-75
2021/09/06 03:24:17;;;;;;;;;;;;;;;;;;;;;
2021/09/06 03:32:53;;;;;;;9.50;6.00;;;;;;;9.27;59.90;101238.61;110305;1224;136733;-74
2021/09/06 03:40:25;;;;;;;8.90;6.80;;;;;;;9.31;59.80;101236.83;111291;1222;634989;-75
2021/09/06 03:44:59;;;;;;;16.60;7.40;;;;;;;9.25;59.85;101230.30;112046;1205;136503;-74
2021/09/06 03:48:43;;;;;;;10.40;6.60;;;;;;;9.17;60.06;101233.34;111906;1211;93939;-75
2021/09/06 03:52:45;;;;;;;10.60;6.90;;;;;;;9.11;60.40;101241.90;111464;1214;108294;-74
2021/09/06 03:56:54;;;;;;;11.10;5.90;;;;;;;9.05;60.37;101242.83;111252;1223;137180;-75
2021/09/06 04:09:41;;;;;;;9.40;5.90;;;;;;;8.99;60.18;101239.61;110198;1230;137131;-74
2021/09/06 04:21:19;;;;;;;12.20;6.50;;;;;;;9.54;60.16;101245.93;111349;1221;637254;-74
2021/09/06 04:29:30;;;;;;;;;;;;;;;;;;;;;
2021/09/06 04:33:40;;;;;;;12.40;7.10;;;;;;;13.57;55.56;101246.71;111872;1219;136729;-74
2021/09/06 04:37:49;;;;;;;10.30;7.10;;;;;;;15.00;53.17;101247.30;111619;1214;106249;-76
2021/09/06 04:42:16;;;;;;;12.60;7.00;;;;;;;16.72;50.94;101237.58;111045;1218;136707;-74
2021/09/06 04:45:46;;;;;;;;;;;;;;;;;;;;;
2021/09/06 04:50:19;;;;;;;12.70;7.50;;;;;;;20.50;44.95;101231.48;110237;1234;94208;-74
2021/09/06 04:53:46;;;;;;;13.70;7.70;;;;;;;22.21;41.83;101231.80;109810;1235;136545;-74
2021/09/06 04:57:23;;;;;;;9.90;7.10;;;;;;;23.57;39.48;101235.16;109596;1231;137107;-75
2021/09/06 05:00:51;;;;;;;14.30;7.30;;;;;;;24.77;37.42;101231.91;109658;1238;109316;-75
2021/09/06 05:07:34;;;;;;;18.80;13.30;;;;;;;27.01;33.95;101236.81;109680;1238;95060;-75
2021/09/06 05:10:25;;;;;;;19.00;15.30;;;;;;;27.83;32.54;101229.10;109582;1232;137202;-75
2021/09/06 05:13:23;;;;;;;11.90;9.10;;;;;;;28.66;31.48;101224.73;109881;1233;106266;-75
2021/09/06 05:16:23;;;;;;;10.80;7.90;;;;;;;29.64;30.21;101227.13;110010;1232;137121;-75
2021/09/06 05:19:20;;;;;;;13.60;8.40;;;;;;;30.74;29.18;101222.55;110522;1226;95036;-77
2021/09/06 05:22:25;;;;;;;13.70;8.00;;;;;;;31.72;27.87;101223.73;110953;1225;137235;-75
2021/09/06 05:25:25;;;;;;;11.00;8.10;;;;;;;32.57;26.69;101218.77;111353;1221;109562;-75
2021/09/06 05:28:18;;;;;;;;;;;;;;;33.32;25.42;101223.04;111446;1221;137490;-74
2021/09/06 05:31:19;;;;;;;9.80;7.10;;;;;;;33.99;24.46;101224.17;111995;1217;99889;-75
2021/09/06 05:34:10;;;;;;;10.90;7.20;;;;;;;34.48;23.37;101223.70;112006;1205;136848;-75
2021/09/06 05:37:00;;;;;;;9.20;6.70;;;;;;;34.82;22.60;101219.86;112221;1209;94835;-75
2021/09/06 05:39:47;;;;;;;10.30;6.60;;;;;;;35.14;22.21;101221.89;112110;1205;136749;-75
2021/09/06 05:42:35;;;;;;;10.10;6.30;;;;;;;35.68;21.47;101226.67;112240;1212;97518;-75
2021/09/06 05:45:24;;;;;;;13.00;10.20;;;;;;;36.11;20.84;101226.64;112182;1201;137029;-75
2021/09/06 05:48:13;;;;;;;9.70;7.40;;;;;;;36.54;20.21;101222.41;112349;1202;95285;-75
2021/09/06 05:51:03;;;;;;;12.40;7.00;;;;;;;36.98;19.73;101218.72;112262;1209;136954;-74
2021/09/06 05:54:28;;;;;;;11.40;6.10;;;;;;;37.55;19.22;101217.48;112339;1202;100837;-75
2021/09/06 05:57:25;;;;;;;8.50;5.60;;;;;;;38.17;18.58;101216.60;112241;1209;137239;-75
2021/09/06 06:00:14;;;;;;;8.00;5.00;;;;;;;38.68;18.15;101224.69;112599;1206;99788;-77
2021/09/06 06:03:06;;;;;;;11.10;5.70;;;;;;;38.90;17.34;101230.96;112512;1205;136834;-75
2021/09/06 06:06:02;;;;;;;9.80;4.10;;;;;;;39.11;16.91;101231.55;112638;1205;94907;-74
2021/09/06 06:08:53;;;;;;;13.50;5.40;;;;;;;39.31;16.25;101234.20;112545;1203;136800;-75
2021/09/06 06:11:41;;;;;;;17.30;5.50;;;;;;;39.53;16.30;101236.86;112614;1203;98662;-75
2021/09/06 06:14:44;;;;;;;20.20;5.90;;;;;;;40.00;15.76;101238.43;112560;1205;136795;-74
2021/09/06 06:17:32;;;;;;;18.20;5.20;;;;;;;40.36;15.48;101240.80;112563;1207;94831;-75
2021/09/06 06:20:21;;;;;;;9.80;4.00;;;;;;;40.43;15.05;101241.31;112664;1205;95050;-75
2021/09/06 06:23:41;;;;;;;11.20;4.90;;;;;;;40.32;14.47;101241.45;112628;1206;100785;-75
2021/09/06 06:26:33;;;;;;;10.20;3.70;;;;;;;40.35;14.26;101243.73;112589;1206;97678;-74
2021/09/06 06:29:37;;;;;;;4.10;3.10;;;;;;;40.37;14.12;101243.34;112466;1199;136570;-75
2021/09/06 06:32:35;;;;;;;8.50;2.90;;;;;;;40.54;13.67;101245.67;112620;1205;94834;-75
2021/09/06 06:35:51;;;;;;;6.30;2.50;;;;;;;40.91;13.69;101245.20;112486;1205;136652;-74
2021/09/06 06:38:48;;;;;;;6.30;2.70;;;;;;;41.15;13.08;101247.66;112554;1205;100851;-74
2021/09/06 06:41:36;;;;;;;5.80;2.30;;;;;;;41.64;12.83;101247.02;112479;1205;136701;-75
2021/09/06 06:44:28;;;;;;;2.70;1.80;;;;;;;42.22;12.30;101250.07;112660;1205;99875;-76
2021/09/06 06:47:23;;;;;;;2.70;1.90;;;;;;;42.65;12.14;101251.14;112540;1203;136912;-75
2021/09/06 06:50:13;;;;;;;6.60;2.10;;;;;;;42.72;11.62;101256.21;112639;1205;94887;-75
2021/09/06 06:53:01;;;;;;;5.40;1.90;;;;;;;42.50;11.38;101255.09;112448;1203;136687;-74
2021/09/06 06:55:54;;;;;;;3.20;2.10;;;;;;;42.47;11.54;101255.75;112544;1205;96295;-75
2021/09/06 06:58:53;;;;;;;;;;;;;;;42.70;11.43;101256.27;112517;1198;136944;-75
2021/09/06 07:01:50;;;;;;;5.40;2.10;;;;;;;42.84;11.42;101254.36;112694;1198;95297;-75
2021/09/06 07:05:02;;;;;;;5.50;1.80;;;;;;;43.07;11.18;101258.43;112489;1205;136668;-75
2021/09/06 07:08:07;;;;;;;5.60;2.30;;;;;;;43.36;10.96;101258.92;112600;1198;99934;-75
2021/09/06 07:10:56;;;;;;;7.90;2.20;;;;;;;43.53;10.73;101264.13;112487;1205;136740;-75
2021/09/06 07:13:57;;;;;;;6.20;2.50;;;;;;;43.47;10.54;101260.73;112508;1205;99853;-76
2021/09/06 07:17:05;;;;;;;5.00;2.60;;;;;;;43.12;10.58;101263.60;112482;1198;136788;-75
2021/09/06 07:19:52;;;;;;;4.60;1.90;;;;;;;42.79;10.52;101268.73;112633;1205;94821;-75
2021/09/06 07:22:43;;;;;;;7.10;2.40;;;;;;;42.78;10.63;101271.39;112600;1198;136781;-75
2021/09/06 07:25:40;;;;;;;6.80;2.40;;;;;;;42.90;10.61;101270.86;112553;1206;98090;-75
2021/09/06 07:28:51;;;;;;;11.10;2.80;;;;;;;42.87;10.80;101271.66;112451;1203;136651;-75
2021/09/06 07:31:39;;;;;;;6.70;5.40;;;;;;;42.86;10.86;101269.77;112623;1205;94811;-74
2021/09/06 07:34:34;;;;;;;6.60;4.30;;;;;;;42.84;10.63;101270.48;112506;1199;136699;-76
2021/09/06 07:37:24;;;;;;;4.30;1.90;;;;;;;42.86;10.33;101271.68;112638;1205;100820;-75
2021/09/06 07:40:17;;;;;;;3.90;1.70;;;;;;;42.61;10.24;101271.20;112469;1205;137481;-74
2021/09/06 07:43:31;;;;;;;2.10;1.50;;;;;;;42.54;10.38;101270.54;112609;1203;98869;-75
2021/09/06 07:46:58;;;;;;;;;;;;;;;;;;;;;
2021/09/06 07:50:20;;;;;;;3.10;1.20;;;;;;;42.55;9.70;101276.80;112878;1204;94878;-75
2021/09/06 07:53:45;;;;;;;2.40;1.40;;;;;;;42.16;9.71;101274.02;112784;1204;136406;-74
2021/09/06 07:57:04;;;;;;;2.40;1.60;;;;;;;41.67;10.02;101273.89;112676;1204;97953;-75
2021/09/06 08:00:06;;;;;;;2.00;1.30;;;;;;;41.20;10.03;101270.31;112710;1204;136501;-74
2021/09/06 08:03:49;;;;;;;4.10;1.40;;;;;;;40.75;9.83;101272.55;112582;1198;95488;-76
2021/09/06 08:06:59;;;;;;;2.40;1.60;;;;;;;40.62;10.35;101271.20;112522;1206;94987;-75
2021/09/06 08:09:51;;;;;;;3.50;1.70;;;;;;;40.73;10.59;101276.06;112544;1204;99589;-75
2021/09/06 08:12:48;;;;;;;2.80;1.40;;;;;;;40.84;10.46;101273.77;112390;1205;136571;-75
2021/09/06 08:15:45;;;;;;;2.40;1.60;;;;;;;40.87;10.65;101264.73;112420;1207;98894;-75
2021/09/06 08:18:34;;;;;;;3.20;1.70;;;;;;;40.65;10.17;101267.21;112409;1206;136695;-75
2021/09/06 08:21:44;;;;;;;2.60;1.30;;;;;;;40.44;10.33;101269.67;112593;1198;95066;-76
2021/09/06 08:24:44;;;;;;;16.40;13.90;;;;;;;40.18;10.67;101270.92;112302;1205;136846;-75
2021/09/06 08:27:46;;;;;;;1.90;1.20;;;;;;;40.11;10.13;101274.15;112583;1198;98569;-75
2021/09/06 08:30:58;;;;;;;3.00;1.50;;;;;;;39.80;10.85;101277.77;112424;1198;136831;-75
2021/09/06 08:33:56;;;;;;;1.90;1.30;;;;;;;39.61;11.24;101275.86;112685;1205;95024;-74
2021/09/06 08:37:25;;;;;;;;;;;;;;;;;;;;;
2021/09/06 08:40:17;;;;;;;4.30;1.30;;;;;;;39.47;11.36;101275.05;112843;1204;99975;-75
2021/09/06 08:43:26;;;;;;;3.00;1.40;;;;;;;39.73;10.98;101275.32;112843;1203;98588;-75
2021/09/06 08:46:34;;;;;;;;;;;;;;;;;;;;;
2021/09/06 08:49:27;;;;;;;4.40;1.30;;;;;;;39.43;10.76;101271.33;112530;1204;136468;-75
2021/09/06 08:52:19;;;;;;;2.00;1.00;;;;;;;39.20;10.58;101273.01;112838;1198;94875;-75
2021/09/06 08:55:07;;;;;;;3.40;1.00;;;;;;;38.77;10.53;101273.67;112475;1198;137612;-75
2021/09/06 08:58:21;;;;;;;;;;;;;;;;;;;;;
2021/09/06 09:01:35;;;;;;;;;;;;;;;;;;;;;
2021/09/06 09:05:17;;;;;;;3.50;1.30;;;;;;;35.83;11.55;101283.25;112849;1204;94812;-76
2021/09/06 09:09:12;;;;;;;1.60;0.80;;;;;;;34.87;12.10;101284.63;112669;1200;94932;-76
2021/09/06 09:12:40;;;;;;;1.90;1.10;;;;;;;33.82;12.58;101286.78;112233;1203;136839;-75
2021/09/06 09:16:56;;;;;;;;;;;;;;;;;;;;;
2021/09/06 09:21:21;;;;;;;3.10;1.20;;;;;;;31.91;13.86;101293.48;111936;1208;137329;-76
2021/09/06 09:25:15;;;;;;;4.30;1.10;;;;;;;31.43;14.97;101293.43;112113;1206;137183;-75
2021/09/06 09:28:50;;;;;;;0.80;0.60;;;;;;;31.97;15.16;101295.91;112190;1212;94993;-75
2021/09/06 09:32:39;;;;;;;2.90;1.00;;;;;;;31.71;14.40;101294.36;111996;1214;137344;-76
2021/09/06 09:37:00;;;;;;;6.20;1.40;;;;;;;31.48;14.72;101292.17;112056;1202;137276;-80
2021/09/06 09:41:05;;;;;;;;;;;;;;;;;;;;;
2021/09/06 09:44:42;;;;;;;15.20;2.40;;;;;;;31.99;14.83;101278.25;112211;1203;137400;-81
2021/09/06 09:49:03;;;;;;;3.40;1.20;;;;;;;31.90;14.78;101270.15;112343;1210;96186;-80
2021/09/06 09:53:01;;;;;;;;;;;;;;;;;;;;;
2021/09/06 09:56:44;;;;;;;;;;;;;;;;;;;;;
2021/09/06 10:01:04;;;;;;;3.40;1.10;;;;;;;32.78;14.89;101256.33;112256;1206;108543;-81
2021/09/06 10:05:05;;;;;;;2.70;1.90;;;;;;;32.51;14.78;101255.96;111979;1218;96497;-81
2021/09/06 10:08:38;;;;;;;7.60;4.50;;;;;;;32.03;15.10;101255.90;111692;1211;137120;-81
2021/09/06 10:12:38;;;;;;;;;;;;;;;;;;;;;
2021/09/06 10:25:14;;;;;;;;;;;;;;;;;;;;;
2021/09/06 10:29:23;;;;;;;2.10;1.20;;;;;;;31.07;16.06;101243.62;110146;1231;95394;-80
2021/09/06 10:33:30;;;;;;;3.60;1.00;;;;;;;31.33;16.09;101234.20;109928;1234;137292;-80
2021/09/06 10:42:00;;;;;;;;;;;;;;;;;;;;;
2021/09/06 10:46:11;;;;;;;3.00;1.10;;;;;;;29.70;15.98;101226.89;112568;1205;136746;-77
2021/09/06 10:50:15;;;;;;;;;;;;;;;;;;;;;
2021/09/06 10:54:10;;;;;;;1.60;1.20;;;;;;;28.83;17.43;101227.09;112321;1210;108094;-77
2021/09/06 10:58:07;;;;;;;;;;;;;;;;;;;;;
2021/09/06 11:01:58;;;;;;;3.40;1.40;;;;;;;28.01;18.47;101226.09;112021;1218;108484;-77
2021/09/06 11:06:02;;;;;;;3.50;1.10;;;;;;;27.63;18.85;101225.67;111746;1219;136651;-77
2021/09/06 11:14:14;;;;;;;;;;;;;;;;;;;;;
2021/09/06 11:25:51;;;;;;;;;;;;;;;;;;;;;
2021/09/06 11:28:46;;;;;;;2.30;1.60;;;;;;;24.92;21.02;101217.95;110070;1225;136780;-77
2021/09/06 11:32:24;;;;;;;;;;;;;;;;;;;;;
2021/09/06 11:36:47;;;;;;;6.70;1.80;;;;;;;24.41;21.70;101206.85;109966;1228;137452;-77
2021/09/06 11:40:25;;;;;;;;;;;;;;;;;;;;;
2021/09/06 11:44:47;;;;;;;2.70;1.70;;;;;;;23.40;22.50;101220.41;109919;1228;94960;-77
2021/09/06 11:48:51;;;;;;;3.50;1.70;;;;;;;22.90;22.95;101219.98;109909;1234;136655;-77
2021/09/06 11:52:57;;;;;;;1.70;1.40;;;;;;;22.75;23.44;101213.70;110003;1225;137374;-76
2021/09/06 11:56:36;;;;;;;;;;;;;;;;;;;;;
2021/09/06 12:04:37;;;;;;;;;;;;;;;;;;;;;
2021/09/06 12:08:50;;;;;;;7.10;4.90;;;;;;;23.71;23.28;101183.92;109704;1230;95348;-77
2021/09/06 12:12:44;;;;;;;;;;;;;;;;;;;;;
2021/09/06 12:16:29;;;;;;;;;;;;;;;;;;;;;
2021/09/06 12:21:01;;;;;;;5.40;1.80;;;;;;;23.76;23.36;101170.46;109672;1236;106518;-77
2021/09/06 12:24:56;;;;;;;;;;;;;;;;;;;;;
2021/09/06 12:29:03;;;;;;;;;;;;;;;;;;;;;
2021/09/06 12:33:15;;;;;;;3.60;1.50;;;;;;;23.85;24.23;101158.08;112037;1206;93866;-76
2021/09/06 12:36:40;;;;;;;;;;;;;;;24.24;24.01;101161.42;111964;1219;108420;-75
2021/09/06 12:40:39;;;;;;;;;;;;;;;;;;;;;
2021/09/06 12:49:14;;;;;;;2.00;1.30;;;;;;;23.21;24.48;101159.99;111850;1218;137477;-77
2021/09/06 12:53:20;;;;;;;9.00;2.20;;;;;;;23.26;24.21;101156.66;110976;1219;94084;-76
2021/09/06 12:56:52;;;;;;;;;;;;;;;;;;;;;
2021/09/06 13:00:54;;;;;;;;;;;;;;;;;;;;;
2021/09/06 13:09:27;;;;;;;1.90;1.30;;;;;;;22.00;25.15;101138.75;112331;1204;94002;-76
2021/09/06 13:13:35;;;;;;;5.10;2.20;;;;;;;21.62;25.66;101141.44;112203;1207;136469;-77
2021/09/06 13:17:45;;;;;;;2.30;1.40;;;;;;;21.46;25.93;101135.02;112056;1209;108184;-76
2021/09/06 13:21:45;;;;;;;;;;;;;;;;;;;;;
2021/09/06 13:29:55;;;;;;;3.30;1.30;;;;;;;21.18;26.66;101128.27;111306;1219;94001;-77
2021/09/06 13:33:39;;;;;;;;;;;;;;;;;;;;;
2021/09/06 13:38:10;;;;;;;2.60;1.30;;;;;;;21.30;27.04;101129.52;110604;1222;136894;-76
2021/09/06 13:45:42;;;;;;;1.30;1.00;;;;;;;21.32;26.63;101132.36;111339;1220;636167;-77
2021/09/06 13:53:42;;;;;;;5.30;1.80;;;;;;;21.42;27.22;101129.09;112139;1209;93960;-76
2021/09/06 13:57:31;;;;;;;4.10;1.20;;;;;;;21.48;27.25;101131.89;111987;1209;136570;-77
2021/09/06 14:01:16;;;;;;;;;;;;;;;;;;;;;
2021/09/06 14:05:27;;;;;;;3.30;1.30;;;;;;;20.67;27.78;101129.13;111357;1222;108521;-77
2021/09/06 14:17:18;;;;;;;;;;;;;;;;;;;;;
2021/09/06 14:21:04;;;;;;;;;;;;;;;;;;;;;
2021/09/06 14:24:50;;;;;;;2.80;2.00;;;;;;;20.13;28.99;101129.80;110260;1231;109449;-76
2021/09/06 14:29:21;;;;;;;4.00;2.20;;;;;;;20.18;28.78;101123.52;110531;1222;137022;-76
2021/09/06 14:33:07;;;;;;;3.40;2.00;;;;;;;20.13;28.54;101118.00;110731;1221;137180;-76
2021/09/06 14:40:36;;;;;;;2.60;1.40;;;;;;;20.09;29.22;101110.77;110670;1227;136903;-77
2021/09/06 14:44:44;;;;;;;3.30;1.20;;;;;;;19.87;29.08;101111.35;111210;1218;137716;-77
2021/09/06 14:48:32;;;;;;;3.20;1.60;;;;;;;19.44;29.42;101112.01;111873;1211;94948;-76
2021/09/06 14:52:40;;;;;;;2.10;1.30;;;;;;;19.10;29.72;101113.52;111575;1221;136748;-76
2021/09/06 15:04:06;;;;;;;1.80;1.10;;;;;;;18.54;31.11;101103.73;111475;1221;136676;-76
2021/09/06 15:08:25;;;;;;;3.20;1.80;;;;;;;18.60;31.47;101105.55;111676;1220;95296;-77
2021/09/06 15:16:02;;;;;;;;;;;;;;;;;;;;;
2021/09/06 15:19:39;;;;;;;;;;;;;;;;;;;;;
2021/09/06 15:24:21;;;;;;;1.40;1.20;;;;;;;18.60;31.79;101098.29;110680;1221;107404;-77
2021/09/06 15:28:08;;;;;;;4.80;1.60;;;;;;;18.63;32.21;101095.89;110151;1231;137053;-76
2021/09/06 15:32:15;;;;;;;16.00;9.60;;;;;;;18.66;31.80;101098.73;110211;1229;94885;-76
2021/09/06 15:40:16;;;;;;;5.90;2.60;;;;;;;18.37;31.71;101099.31;109843;1222;137387;-76
2021/09/06 15:43:50;;;;;;;;;;;;;;;;;;;;;
2021/09/06 15:48:22;;;;;;;1.60;1.30;;;;;;;18.22;32.11;101094.48;110093;1230;136795;-76
2021/09/06 15:56:05;;;;;;;1.60;1.20;;;;;;;17.92;32.47;101095.63;110721;1221;106582;-76
2021/09/06 16:00:18;;;;;;;3.10;1.70;;;;;;;17.83;32.73;101095.17;110542;1221;136908;-77
2021/09/06 16:04:24;;;;;;;1.80;1.20;;;;;;;17.75;32.70;101097.84;110348;1227;137052;-77
2021/09/06 16:07:54;;;;;;;;;;;;;;;;;;;;;
2021/09/06 16:12:26;;;;;;;7.60;1.70;;;;;;;17.62;33.04;101098.29;109968;1226;137153;-77
2021/09/06 16:20:37;;;;;;;2.70;1.70;;;;;;;17.43;33.88;101100.56;109778;1228;108050;-77
2021/09/06 16:24:43;;;;;;;3.10;1.50;;;;;;;17.38;34.18;101103.08;111558;1220;636020;-76
2021/09/06 16:36:33;;;;;;;;;;;;;;;;;;;;;
2021/09/06 16:40:42;;;;;;;3.30;1.60;;;;;;;17.04;35.12;101104.30;111932;1210;136972;-76
2021/09/06 16:45:16;;;;;;;3.90;1.70;;;;;;;16.98;35.38;101099.69;111596;1215;107525;-77
2021/09/06 16:49:21;;;;;;;7.90;2.50;;;;;;;16.89;35.73;101098.50;110356;1223;136736;-76
2021/09/06 16:53:13;;;;;;;;;;;;;;;;;;;;;
2021/09/06 17:00:48;;;;;;;7.30;1.80;;;;;;;16.67;36.90;101100.48;111394;1221;637089;-78
2021/09/06 17:04:57;;;;;;;2.80;1.70;;;;;;;16.54;36.97;101098.27;112233;1210;137061;-77
2021/09/06 17:09:32;;;;;;;4.30;1.80;;;;;;;16.43;37.29;101093.64;112618;1200;94004;-76
2021/09/06 17:12:45;;;;;;;;;;;;;;;;;;;;;
2021/09/06 17:25:07;;;;;;;5.30;2.00;;;;;;;16.00;38.67;101085.61;111880;1210;136533;-76
2021/09/06 17:34:01;;;;;;;;;;;;;;;;;;;;;
2021/09/06 17:42:29;;;;;;;8.80;2.50;;;;;;;15.50;40.07;101077.63;110327;1222;137038;-77
2021/09/06 17:45:12;;;;;;;6.90;2.50;;;;;;;15.44;40.38;101084.86;110027;1232;95320;-77
2021/09/06 17:53:24;;;;;;;5.70;2.50;;;;;;;15.33;40.97;101089.33;110142;1225;108519;-77
2021/09/06 17:57:29;;;;;;;5.50;2.50;;;;;;;15.28;41.06;101084.80;110099;1231;106291;-76
2021/09/06 18:05:22;;;;;;;8.40;2.70;;;;;;;15.19;41.27;101085.65;109808;1227;94992;-77
2021/09/06 18:08:44;;;;;;;;;;;;;;;;;;;;;
2021/09/06 18:16:21;;;;;;;;;;;;;;;;;;;;;
2021/09/06 18:20:32;;;;;;;5.30;2.30;;;;;;;15.06;41.78;101087.69;112407;1206;136514;-77
2021/09/06 18:24:42;;;;;;;6.30;2.60;;;;;;;15.02;41.68;101093.27;112228;1209;136926;-77
2021/09/06 18:28:51;;;;;;;4.00;2.50;;;;;;;14.99;41.86;101093.05;112235;1206;107017;-77
2021/09/06 18:32:52;;;;;;;;;;;;;;;;;;;;;
2021/09/06 18:36:45;;;;;;;15.00;6.10;;;;;;;14.92;42.14;101089.31;111681;1219;138212;-77
2021/09/06 18:41:18;;;;;;;8.60;4.90;;;;;;;14.90;42.30;101091.99;111853;1219;95609;-77
2021/09/06 18:49:30;;;;;;;4.40;2.40;;;;;;;14.84;42.47;101092.91;111110;1217;136843;-76
2021/09/06 18:53:17;;;;;;;7.20;4.20;;;;;;;14.82;42.72;101088.62;110916;1219;108285;-76
2021/09/06 19:01:29;;;;;;;6.30;3.50;;;;;;;14.75;43.25;101083.79;110350;1228;137078;-77
2021/09/06 19:17:05;;;;;;;7.20;4.60;;;;;;;14.49;46.18;101083.84;112070;1207;93868;-76
2021/09/06 19:21:15;;;;;;;8.80;3.70;;;;;;;14.41;45.89;101090.91;111968;1215;136740;-77
2021/09/06 19:25:24;;;;;;;6.20;3.90;;;;;;;14.36;45.99;101092.66;111932;1209;136588;-76
2021/09/06 19:33:25;;;;;;;7.20;4.60;;;;;;;14.33;45.92;101097.81;111058;1216;657238;-77
2021/09/06 19:37:27;;;;;;;;;;;;;;;;;;;;;
2021/09/06 19:42:08;;;;;;;9.10;4.30;;;;;;;14.29;45.88;101101.81;112079;1215;93983;-77
2021/09/06 19:45:45;;;;;;;5.00;3.60;;;;;;;14.28;46.09;101105.19;111641;1212;108177;-77
2021/09/06 19:54:05;;;;;;;7.50;4.20;;;;;;;14.26;46.15;101097.73;111326;1217;108711;-76
2021/09/06 19:58:40;;;;;;;8.20;3.60;;;;;;;14.24;46.16;101098.34;111134;1218;94056;-76
2021/09/06 20:02:45;;;;;;;8.40;3.80;;;;;;;14.22;46.19;101096.64;110388;1221;137041;-77
2021/09/06 20:22:53;;;;;;;6.70;3.20;;;;;;;14.26;45.78;101088.97;111479;1220;638596;-78
2021/09/06 20:26:54;;;;;;;;;;;;;;;;;;;;;
2021/09/06 20:35:45;;;;;;;9.80;3.00;;;;;;;14.16;46.21;101088.44;112144;1208;106450;-77
2021/09/06 20:39:22;;;;;;;;;;;;;;;;;;;;;
2021/09/06 20:44:12;;;;;;;6.50;4.30;;;;;;;14.05;46.64;101091.62;111476;1220;108442;-77
2021/09/06 20:47:43;;;;;;;;;;;;;;;;;;;;;
2021/09/06 21:00:25;;;;;;;8.60;3.90;;;;;;;13.88;47.39;101087.77;110833;1219;137289;-77
2021/09/06 21:08:32;;;;;;;8.60;3.60;;;;;;;13.81;47.81;101088.88;110464;1223;95178;-79
2021/09/06 21:20:44;;;;;;;11.00;3.70;;;;;;;13.75;47.97;101096.58;110501;1225;106774;-77
2021/09/06 21:24:50;;;;;;;8.60;3.90;;;;;;;13.72;48.24;101089.71;110295;1223;136833;-78
2021/09/06 21:32:23;;;;;;;7.80;4.40;;;;;;;13.68;48.64;101097.36;111254;1222;637546;-76
2021/09/06 21:36:32;;;;;;;7.40;4.10;;;;;;;13.63;48.73;101094.17;112177;1206;136307;-77
2021/09/06 21:53:23;;;;;;;12.00;4.70;;;;;;;13.47;49.73;101102.73;110804;1218;137207;-77
2021/09/06 22:01:35;;;;;;;8.70;4.60;;;;;;;13.42;50.26;101102.18;109564;1236;136684;-76
2021/09/06 22:09:07;;;;;;;7.90;5.10;;;;;;;13.38;50.60;101098.81;111271;1221;635467;-77
2021/09/06 22:13:16;;;;;;;10.20;5.10;;;;;;;13.32;50.80;101091.84;112429;1207;136325;-77
2021/09/06 22:21:34;;;;;;;13.00;5.70;;;;;;;13.24;51.22;101088.17;112279;1212;108217;-78
2021/09/06 22:25:32;;;;;;;;;;;;;;;;;;;;;
2021/09/06 22:33:37;;;;;;;;;;;;;;;;;;;;;
2021/09/06 22:38:19;;;;;;;9.40;5.30;;;;;;;13.04;52.13;101084.05;110658;1220;137330;-76
2021/09/06 22:42:25;;;;;;;12.60;5.70;;;;;;;13.00;52.33;101085.39;111401;1222;636071;-77
2021/09/06 22:46:22;;;;;;;;;;;;;;;;;;;;;
2021/09/06 22:50:34;;;;;;;11.80;6.00;;;;;;;12.94;52.96;101081.55;112038;1214;94175;-76
2021/09/06 22:58:52;;;;;;;12.00;6.90;;;;;;;12.86;53.31;101079.85;111951;1212;106416;-77
2021/09/06 23:03:26;;;;;;;13.40;6.70;;;;;;;12.80;53.54;101079.70;111513;1221;108741;-77
2021/09/06 23:15:20;;;;;;;14.30;6.80;;;;;;;12.57;53.94;101077.70;110488;1225;108820;-78
2021/09/06 23:19:50;;;;;;;16.90;7.70;;;;;;;12.50;54.29;101071.26;110028;1226;137243;-77
2021/09/06 23:23:56;;;;;;;15.40;7.30;;;;;;;12.46;54.40;101073.81;109972;1229;109426;-78
2021/09/06 23:32:20;;;;;;;;;;;;;;;;;;;;;
2021/09/06 23:48:27;;;;;;;17.10;7.70;;;;;;;12.12;54.95;101062.30;111503;1220;636625;-76
2021/09/06 23:52:19;;;;;;;;;;;;;;;;;;;;;
